Time;durP1;ratioP1;P1;durP2;ratioP2;P2;SDS_P1;SDS_P2;PMS_P1;PMS_P2;Temp;Humidity;BMP_temperature;BMP_pressure;BME280_temperature;BME280_humidity;BME280_pressure;Samples;Min_cycle;Max_cycle;Signal;HPM_P1;HPM_P2
2022/09/03 00:00:12;;;;;;;17.33;10.18;;;;;;;24.49;45.55;100906.56;5043063;28;20545;-57
2022/09/03 00:02:44;;;;;;;20.17;10.77;;;;;;;24.45;46.38;100898.13;5033310;28;20030;-57
2022/09/03 00:05:40;;;;;;;16.65;10.70;;;;;;;24.01;45.27;100903.94;5046510;28;20103;-57
2022/09/03 00:08:42;;;;;;;18.23;10.57;;;;;;;23.77;46.59;100900.44;5034420;28;20052;-56
2022/09/03 00:11:20;;;;;;;19.10;9.98;;;;;;;23.66;46.96;100916.16;5033135;28;20036;-56
2022/09/03 00:13:56;;;;;;;19.63;9.77;;;;;;;23.58;46.77;100916.75;5032876;28;20042;-57
2022/09/03 00:16:28;;;;;;;17.02;8.77;;;;;;;23.40;48.58;100910.13;5043639;28;20033;-56
2022/09/03 00:19:01;;;;;;;16.80;9.50;;;;;;;23.25;48.38;100902.09;5033026;28;20017;-56
2022/09/03 00:21:43;;;;;;;18.42;10.27;;;;;;;23.24;48.24;100905.91;5047762;28;20119;-56
2022/09/03 00:24:13;;;;;;;14.70;9.32;;;;;;;23.04;48.22;100904.19;5052441;28;20025;-56
2022/09/03 00:26:44;;;;;;;18.80;9.65;;;;;;;22.83;48.88;100900.84;5052952;28;20036;-57
2022/09/03 00:29:27;;;;;;;17.88;9.10;;;;;;;22.73;50.48;100920.81;5052219;28;20095;-56
2022/09/03 00:31:59;;;;;;;15.68;8.73;;;;;;;22.57;50.57;100906.47;5053160;28;20032;-56
2022/09/03 00:34:40;;;;;;;18.35;9.02;;;;;;;22.48;51.11;100907.38;5038575;28;20179;-56
2022/09/03 00:37:09;;;;;;;18.52;8.25;;;;;;;22.24;51.87;100915.44;5040184;28;20108;-56
2022/09/03 00:39:37;;;;;;;15.93;8.48;;;;;;;22.12;51.90;100908.41;5049364;28;20030;-62
2022/09/03 00:42:27;;;;;;;14.55;8.07;;;;;;;22.13;52.00;100923.69;5043600;28;20038;-56
2022/09/03 00:45:02;;;;;;;16.83;7.60;;;;;;;21.85;52.97;100925.16;5041404;28;20041;-51
2022/09/03 00:47:58;;;;;;;12.32;7.13;;;;;;;21.81;53.53;100932.25;5029543;28;20112;-55
2022/09/03 00:50:30;;;;;;;14.60;7.80;;;;;;;21.15;54.74;100931.56;5039644;28;20360;-56
2022/09/03 00:52:59;;;;;;;15.20;8.10;;;;;;;21.04;55.53;100934.31;5037129;28;20359;-54
2022/09/03 00:55:46;;;;;;;20.88;8.40;;;;;;;21.03;55.99;100942.75;5045041;28;20031;-55
2022/09/03 00:58:44;;;;;;;12.38;8.15;;;;;;;20.97;56.15;100943.84;5033188;28;20025;-61
2022/09/03 01:01:39;;;;;;;15.98;8.80;;;;;;;20.93;55.72;100942.75;5039762;28;20030;-54
2022/09/03 01:04:44;;;;;;;18.75;7.90;;;;;;;20.59;57.55;100940.56;5032191;28;20044;-58
2022/09/03 01:07:34;;;;;;;15.55;7.65;;;;;;;20.75;57.25;100936.75;5039467;28;20035;-57
2022/09/03 01:10:43;;;;;;;22.15;8.77;;;;;;;20.69;56.38;100937.03;5048048;28;20029;-55
2022/09/03 01:13:33;;;;;;;14.60;7.75;;;;;;;20.38;57.83;100945.13;5043857;28;20032;-56
2022/09/03 01:16:25;;;;;;;17.80;7.93;;;;;;;20.46;57.55;100944.63;5046173;28;20029;-55
2022/09/03 01:19:11;;;;;;;17.92;8.20;;;;;;;20.41;57.58;100938.31;5040455;28;20045;-54
2022/09/03 01:22:10;;;;;;;14.23;8.30;;;;;;;20.08;58.21;100945.84;5035016;28;20028;-55
2022/09/03 01:24:51;;;;;;;21.00;8.35;;;;;;;20.18;58.59;100951.31;5038534;28;20042;-57
2022/09/03 01:27:45;;;;;;;19.80;9.38;;;;;;;20.26;58.47;100939.91;5029569;28;20084;-55
2022/09/03 01:30:17;;;;;;;14.60;8.80;;;;;;;20.03;59.22;100945.81;5034130;28;20029;-55
2022/09/03 01:33:06;;;;;;;17.23;8.85;;;;;;;20.25;58.59;100951.88;5039673;28;20032;-55
2022/09/03 01:35:52;;;;;;;16.48;8.05;;;;;;;19.87;59.56;100946.84;5046167;28;20049;-55
2022/09/03 01:38:36;;;;;;;31.55;9.00;;;;;;;19.83;60.42;100946.56;5031563;28;20391;-55
2022/09/03 01:44:22;;;;;;;16.67;7.15;;;;;;;19.64;60.91;100942.66;5031763;28;20079;-54
2022/09/03 01:47:01;;;;;;;19.45;7.13;;;;;;;19.30;62.00;100936.75;5031942;28;20095;-56
2022/09/03 01:49:40;;;;;;;16.42;7.57;;;;;;;19.18;62.16;100940.47;5048398;28;20059;-55
2022/09/03 01:52:29;;;;;;;15.60;7.32;;;;;;;19.07;63.09;100932.50;5051305;28;20483;-55
2022/09/03 01:55:23;;;;;;;20.15;8.00;;;;;;;18.99;63.01;100936.53;5051169;28;20036;-55
2022/09/03 01:57:55;;;;;;;17.65;8.23;;;;;;;18.95;63.22;100947.06;5050954;28;20021;-55
2022/09/03 02:00:23;;;;;;;18.77;7.30;;;;;;;18.78;63.81;100945.56;5050955;28;20101;-55
2022/09/03 02:02:51;;;;;;;19.33;6.95;;;;;;;18.42;65.25;100932.44;5051119;28;20044;-55
2022/09/03 02:05:23;;;;;;;25.90;8.60;;;;;;;18.48;65.34;100936.03;5050719;28;20063;-55
2022/09/03 02:08:00;;;;;;;14.82;7.55;;;;;;;18.24;66.00;100937.41;5050994;28;20025;-55
2022/09/03 02:10:48;;;;;;;17.17;7.85;;;;;;;18.46;65.46;100940.91;5051131;28;20149;-55
2022/09/03 02:13:19;;;;;;;17.00;7.45;;;;;;;18.52;65.44;100939.88;5051091;28;20048;-55
2022/09/03 02:15:50;;;;;;;13.23;7.40;;;;;;;18.32;65.84;100948.63;5051100;28;20017;-55
2022/09/03 02:18:32;;;;;;;20.05;8.32;;;;;;;18.33;65.98;100944.84;5050982;28;20116;-55
2022/09/03 02:21:00;;;;;;;14.98;7.85;;;;;;;18.14;66.80;100936.22;5050902;28;20048;-55
2022/09/03 02:23:27;;;;;;;19.95;8.45;;;;;;;17.91;67.27;100950.03;5032147;28;20159;-55
2022/09/03 02:26:00;;;;;;;15.90;8.40;;;;;;;17.90;67.86;100941.09;5030937;28;20053;-55
2022/09/03 02:28:32;;;;;;;16.25;8.18;;;;;;;17.77;68.30;100940.66;5030606;28;20044;-55
2022/09/03 02:30:58;;;;;;;19.95;8.02;;;;;;;17.88;67.68;100926.19;5031132;28;20113;-55
2022/09/03 02:33:25;;;;;;;17.30;7.55;;;;;;;17.75;68.60;100937.38;5031210;28;20111;-55
2022/09/03 02:35:52;;;;;;;15.85;7.70;;;;;;;17.78;67.98;100942.28;5031275;28;20033;-55
2022/09/03 02:38:24;;;;;;;16.02;7.90;;;;;;;17.73;68.08;100945.75;5030383;28;20048;-55
2022/09/03 02:40:53;;;;;;;17.23;7.70;;;;;;;17.80;68.13;100932.84;5030487;28;20025;-54
2022/09/03 02:43:34;;;;;;;20.80;8.50;;;;;;;17.83;68.11;100950.50;5031042;28;20040;-55
2022/09/03 02:46:04;;;;;;;19.20;8.45;;;;;;;17.84;67.79;100938.59;5035692;28;20017;-55
2022/09/03 02:48:30;;;;;;;17.55;8.10;;;;;;;17.64;68.37;100942.63;5050477;28;20021;-55
2022/09/03 02:50:56;;;;;;;20.38;7.80;;;;;;;17.51;68.92;100942.16;5050854;28;20025;-55
2022/09/03 02:53:22;;;;;;;17.23;7.80;;;;;;;17.52;69.03;100952.75;5050688;28;20112;-54
2022/09/03 02:55:48;;;;;;;16.17;7.93;;;;;;;17.56;69.07;100940.34;5044668;28;20037;-55
2022/09/03 02:58:15;;;;;;;21.13;8.25;;;;;;;17.49;69.01;100934.31;5050139;28;20032;-53
2022/09/03 03:00:41;;;;;;;18.35;8.98;;;;;;;17.44;69.32;100931.53;5034680;28;20025;-55
2022/09/03 03:03:08;;;;;;;17.42;7.65;;;;;;;17.61;68.50;100950.44;5033998;28;20033;-54
2022/09/03 03:05:43;;;;;;;15.50;8.68;;;;;;;17.47;69.31;100941.84;5042167;28;20028;-55
2022/09/03 03:08:11;;;;;;;;;;;;;;;17.57;69.31;100944.69;5031433;28;20025;-55
2022/09/03 03:10:37;;;;;;;16.90;8.05;;;;;;;17.63;69.34;100953.69;5032806;28;20298;-54
2022/09/03 03:13:03;;;;;;;18.17;7.90;;;;;;;17.52;69.50;100941.09;5040425;28;20026;-55
2022/09/03 03:15:29;;;;;;;15.18;7.68;;;;;;;17.59;68.98;100947.97;5034664;28;20108;-53
2022/09/03 03:17:56;;;;;;;14.93;8.23;;;;;;;17.62;68.98;100942.06;5033917;28;20072;-54
2022/09/03 03:20:23;;;;;;;17.50;8.38;;;;;;;17.59;69.16;100947.97;5033724;28;20029;-54
2022/09/03 03:22:49;;;;;;;16.13;8.38;;;;;;;17.67;68.79;100957.56;5035461;28;20047;-54
2022/09/03 03:25:15;;;;;;;18.42;8.75;;;;;;;17.61;69.83;100956.66;5034348;28;20030;-54
2022/09/03 03:27:42;;;;;;;23.23;9.82;;;;;;;17.71;69.34;100949.72;5034858;28;20025;-55
2022/09/03 03:30:09;;;;;;;17.85;8.73;;;;;;;17.65;69.93;100952.38;5046484;28;20427;-53
2022/09/03 03:32:37;;;;;;;16.77;9.23;;;;;;;17.72;69.68;100959.50;5053642;28;20112;-54
2022/09/03 03:35:04;;;;;;;22.60;8.80;;;;;;;17.66;70.10;100970.28;5054413;28;20510;-54
2022/09/03 03:37:32;;;;;;;22.90;9.32;;;;;;;17.54;71.21;100969.53;5053204;28;20491;-54
2022/09/03 03:39:58;;;;;;;15.82;8.98;;;;;;;17.69;70.68;100964.34;5052173;28;20454;-54
2022/09/03 03:42:24;;;;;;;21.20;9.00;;;;;;;17.83;70.10;100980.28;5033985;28;20033;-54
2022/09/03 03:44:51;;;;;;;22.48;10.43;;;;;;;17.95;70.25;100975.53;5033943;28;20026;-54
2022/09/03 03:47:17;;;;;;;21.60;10.05;;;;;;;17.83;70.35;100974.84;5041460;28;20035;-54
2022/09/03 03:49:44;;;;;;;15.10;10.05;;;;;;;17.88;69.37;100972.22;5034157;28;20112;-53
2022/09/03 03:52:10;;;;;;;20.35;9.45;;;;;;;17.83;69.38;100994.63;5033446;28;20030;-54
2022/09/03 03:54:36;;;;;;;21.65;10.32;;;;;;;17.93;69.11;100989.34;5045049;28;20031;-54
2022/09/03 03:57:03;;;;;;;21.23;10.05;;;;;;;17.85;68.81;100997.06;5051455;28;20441;-54
2022/09/03 03:59:29;;;;;;;20.90;10.57;;;;;;;17.92;68.29;101006.63;5033219;28;20028;-54
2022/09/03 04:01:55;;;;;;;17.25;9.27;;;;;;;18.06;67.85;100998.97;5033440;28;20056;-54
2022/09/03 04:04:21;;;;;;;14.23;8.73;;;;;;;18.09;67.34;101009.28;5042900;28;20025;-54
2022/09/03 04:06:48;;;;;;;18.00;9.48;;;;;;;17.99;68.19;101011.91;5052725;28;20242;-54
2022/09/03 04:09:14;;;;;;;19.00;8.68;;;;;;;17.83;68.72;101008.16;5052942;28;20031;-53
2022/09/03 04:11:40;;;;;;;21.63;9.40;;;;;;;17.73;70.26;101010.72;5053457;28;20017;-54
2022/09/03 04:14:06;;;;;;;18.95;8.35;;;;;;;17.86;70.20;101017.66;5050496;28;20079;-53
2022/09/03 04:16:32;;;;;;;19.85;8.68;;;;;;;17.69;69.90;101032.00;5033333;28;20061;-54
2022/09/03 04:18:59;;;;;;;17.33;9.02;;;;;;;17.73;70.08;101035.09;5032641;28;20064;-54
2022/09/03 04:21:27;;;;;;;18.63;9.32;;;;;;;17.87;69.04;101044.47;5032168;28;20456;-54
2022/09/03 04:23:54;;;;;;;15.35;8.38;;;;;;;17.78;69.50;101053.31;5032752;28;20030;-54
2022/09/03 04:26:24;;;;;;;18.05;9.35;;;;;;;17.79;69.26;101053.03;5032845;28;20079;-54
2022/09/03 04:28:51;;;;;;;23.95;9.07;;;;;;;17.81;69.13;101058.19;5032368;28;20124;-53
2022/09/03 04:31:19;;;;;;;17.00;8.73;;;;;;;17.85;68.86;101068.28;5036296;28;20037;-54
2022/09/03 04:33:45;;;;;;;15.13;8.43;;;;;;;17.76;69.63;101064.34;5032757;28;20083;-54
2022/09/03 04:36:13;;;;;;;19.38;8.93;;;;;;;17.78;69.62;101061.41;5037474;28;20032;-54
2022/09/03 04:38:41;;;;;;;17.15;8.23;;;;;;;17.78;68.82;101067.66;5032991;28;20037;-53
2022/09/03 04:41:10;;;;;;;20.60;8.15;;;;;;;17.66;69.11;101070.44;5036107;28;20076;-54
2022/09/03 04:43:36;;;;;;;17.88;7.72;;;;;;;17.43;69.33;101065.16;5032532;28;20491;-54
2022/09/03 04:46:05;;;;;;;17.40;7.63;;;;;;;17.31;70.34;101075.25;5032763;28;20126;-54
2022/09/03 04:48:33;;;;;;;17.20;7.82;;;;;;;17.44;70.02;101060.59;5044202;28;20120;-53
2022/09/03 04:51:13;;;;;;;17.30;7.57;;;;;;;17.40;70.00;101077.31;5038529;28;20040;-54
2022/09/03 04:53:45;;;;;;;17.75;7.38;;;;;;;17.21;70.67;101072.38;5031865;28;20037;-54
2022/09/03 04:56:23;;;;;;;18.75;7.75;;;;;;;17.22;71.01;101068.63;5031845;28;20036;-54
2022/09/03 04:58:57;;;;;;;18.40;7.82;;;;;;;17.20;71.24;101065.31;5032199;28;20040;-54
2022/09/03 05:01:26;;;;;;;22.00;8.45;;;;;;;17.27;70.43;101082.25;5042749;28;20047;-53
2022/09/03 05:03:53;;;;;;;17.17;8.02;;;;;;;17.18;70.80;101089.09;5049049;28;20031;-53
2022/09/03 05:06:19;;;;;;;16.63;7.97;;;;;;;17.15;71.14;101082.28;5047086;28;20052;-53
2022/09/03 05:08:50;;;;;;;15.02;7.72;;;;;;;17.36;70.36;101103.22;5043403;28;20028;-53
2022/09/03 05:11:16;;;;;;;14.82;7.75;;;;;;;17.27;70.67;101103.88;5045317;28;20056;-54
2022/09/03 05:13:46;;;;;;;18.83;7.90;;;;;;;17.14;70.76;101115.81;5042782;28;20028;-53
2022/09/03 05:16:12;;;;;;;16.05;7.55;;;;;;;17.21;70.57;101115.66;5044429;28;20416;-54
2022/09/03 05:18:38;;;;;;;14.60;7.60;;;;;;;17.28;70.37;101097.41;5034467;28;20058;-54
2022/09/03 05:21:07;;;;;;;20.65;8.50;;;;;;;17.22;70.88;101085.66;5049039;28;20040;-54
2022/09/03 05:23:38;;;;;;;21.25;9.35;;;;;;;17.08;71.67;101097.84;5050852;28;20112;-53
2022/09/03 05:26:10;;;;;;;19.40;8.55;;;;;;;17.09;71.56;101092.19;5050663;28;20462;-53
2022/09/03 05:28:39;;;;;;;19.48;8.45;;;;;;;17.23;71.32;101102.72;5031079;28;20395;-53
2022/09/03 05:31:08;;;;;;;19.92;7.85;;;;;;;17.28;71.38;101103.63;5043079;28;20032;-54
2022/09/03 05:33:40;;;;;;;22.60;7.85;;;;;;;17.31;71.46;101095.00;5031550;28;20468;-54
2022/09/03 05:36:09;;;;;;;13.57;7.50;;;;;;;17.22;71.84;101099.19;5031290;28;20034;-54
2022/09/03 05:38:36;;;;;;;18.02;8.38;;;;;;;17.14;72.00;101103.09;5035184;28;20049;-54
2022/09/03 05:41:04;;;;;;;23.75;9.15;;;;;;;17.13;71.96;101096.06;5043111;28;20025;-54
2022/09/03 05:43:32;;;;;;;16.27;7.18;;;;;;;17.11;71.75;101090.06;5043942;28;20045;-54
2022/09/03 05:46:06;;;;;;;23.50;8.60;;;;;;;17.20;72.03;101092.38;5043013;28;20037;-54
2022/09/03 05:48:34;;;;;;;17.20;7.38;;;;;;;17.16;71.83;101102.88;5050083;28;20495;-53
2022/09/03 05:51:11;;;;;;;20.80;7.78;;;;;;;17.12;72.45;101102.53;5047656;28;20103;-54
2022/09/03 05:53:39;;;;;;;21.15;8.40;;;;;;;17.05;72.56;101106.47;5050757;28;20040;-53
2022/09/03 05:56:11;;;;;;;23.05;7.80;;;;;;;16.89;73.07;101099.94;5049988;28;20060;-53
2022/09/03 05:58:43;;;;;;;18.65;8.48;;;;;;;16.80;73.59;101090.56;5042490;28;20030;-54
2022/09/03 06:01:21;;;;;;;15.57;7.95;;;;;;;17.00;72.96;101096.38;5032055;28;20040;-54
2022/09/03 06:03:56;;;;;;;23.15;8.38;;;;;;;16.96;72.78;101095.19;5031080;28;20063;-53
2022/09/03 06:06:25;;;;;;;;;;;;;;;16.84;72.80;101095.25;5032187;28;20140;-54
2022/09/03 06:09:10;;;;;;;21.00;8.60;;;;;;;16.94;72.23;101108.16;5034249;28;20318;-53
2022/09/03 06:11:37;;;;;;;23.17;9.35;;;;;;;17.02;71.68;101101.53;5033758;28;20448;-53
2022/09/03 06:14:07;;;;;;;17.92;7.70;;;;;;;16.87;72.06;101086.63;5031592;28;20422;-53
2022/09/03 06:16:35;;;;;;;18.83;8.52;;;;;;;17.06;71.75;101091.88;5031058;28;20025;-54
2022/09/03 06:19:06;;;;;;;17.10;8.40;;;;;;;16.87;71.71;101100.16;5031247;28;20549;-54
2022/09/03 06:21:32;;;;;;;16.55;7.97;;;;;;;16.94;71.24;101091.09;5035427;28;20124;-53
2022/09/03 06:23:58;;;;;;;18.88;8.50;;;;;;;16.98;71.16;101090.34;5031331;28;20056;-54
2022/09/03 06:26:26;;;;;;;17.27;8.18;;;;;;;17.07;70.83;101088.09;5039573;28;20036;-53
2022/09/03 06:28:53;;;;;;;19.88;8.50;;;;;;;16.98;70.74;101095.75;5050111;28;20163;-53
2022/09/03 06:31:21;;;;;;;22.08;8.38;;;;;;;17.07;70.79;101093.50;5050595;28;20032;-54
2022/09/03 06:33:47;;;;;;;18.08;7.80;;;;;;;17.03;70.62;101109.38;5040258;28;20037;-53
2022/09/03 06:36:18;;;;;;;14.35;7.28;;;;;;;16.99;70.57;101108.25;5037592;28;20040;-54
2022/09/03 06:38:45;;;;;;;21.35;7.95;;;;;;;17.15;70.25;101104.72;5031580;28;20030;-54
2022/09/03 06:41:24;;;;;;;19.58;7.65;;;;;;;17.07;70.23;101090.81;5050860;28;20112;-54
2022/09/03 06:44:10;;;;;;;15.63;7.38;;;;;;;17.16;70.25;101108.28;5033618;28;20033;-53
2022/09/03 06:46:38;;;;;;;15.55;8.30;;;;;;;17.05;70.27;101114.56;5034243;28;20076;-53
2022/09/03 06:49:04;;;;;;;13.13;6.97;;;;;;;17.04;70.15;101108.31;5037499;28;20044;-53
2022/09/03 06:51:32;;;;;;;17.17;7.47;;;;;;;17.00;70.31;101120.69;5036934;28;20369;-53
2022/09/03 06:54:06;;;;;;;18.25;7.85;;;;;;;17.03;70.38;101120.19;5045180;28;20635;-53
2022/09/03 06:56:35;;;;;;;16.45;8.30;;;;;;;16.85;70.91;101133.91;5046186;28;20029;-54
2022/09/03 06:59:14;;;;;;;23.20;8.10;;;;;;;16.87;70.80;101132.59;5054228;28;20029;-53
2022/09/03 07:01:42;;;;;;;17.23;7.25;;;;;;;16.84;70.93;101137.69;5034675;28;20036;-52
2022/09/03 07:04:09;;;;;;;19.33;7.32;;;;;;;16.85;70.83;101131.22;5034532;28;20079;-53
2022/09/03 07:06:41;;;;;;;17.88;7.25;;;;;;;16.91;70.75;101143.78;5034225;28;20036;-54
2022/09/03 07:09:08;;;;;;;14.25;7.63;;;;;;;16.83;70.94;101142.28;5034081;28;20029;-53
2022/09/03 07:11:35;;;;;;;14.15;7.25;;;;;;;16.84;70.84;101129.56;5035569;28;20422;-54
2022/09/03 07:14:04;;;;;;;17.70;7.65;;;;;;;16.75;70.79;101131.00;5054260;28;20333;-53
2022/09/03 07:16:36;;;;;;;15.68;7.63;;;;;;;16.87;70.28;101137.19;5053924;28;20060;-54
2022/09/03 07:19:06;;;;;;;17.60;7.40;;;;;;;16.73;70.95;101135.84;5053874;28;20032;-54
2022/09/03 07:21:40;;;;;;;17.67;6.95;;;;;;;16.61;71.40;101143.94;5037772;28;20034;-53
2022/09/03 07:24:07;;;;;;;14.25;7.18;;;;;;;16.66;71.55;101141.34;5032789;28;20026;-52
2022/09/03 07:26:39;;;;;;;11.48;6.95;;;;;;;16.56;71.50;101136.56;5033952;28;20037;-52
2022/09/03 07:29:06;;;;;;;17.02;6.88;;;;;;;16.68;71.01;101152.75;5033409;28;20041;-54
2022/09/03 07:31:36;;;;;;;14.30;6.78;;;;;;;16.77;70.57;101151.34;5034070;28;20071;-54
2022/09/03 07:34:05;;;;;;;17.08;6.82;;;;;;;16.78;70.86;101146.75;5033715;28;20026;-53
2022/09/03 07:36:44;;;;;;;15.07;6.75;;;;;;;16.84;70.88;101154.72;5034346;28;20037;-53
2022/09/03 07:39:11;;;;;;;15.50;7.35;;;;;;;16.74;71.19;101159.09;5034066;28;20035;-53
2022/09/03 07:41:43;;;;;;;16.10;7.70;;;;;;;16.73;71.29;101152.88;5033790;28;20060;-51
2022/09/03 07:44:14;;;;;;;21.15;8.50;;;;;;;16.68;71.67;101165.44;5033496;28;20026;-54
2022/09/03 07:46:42;;;;;;;14.77;7.53;;;;;;;16.66;71.97;101162.13;5039846;28;20487;-52
2022/09/03 07:49:09;;;;;;;20.40;7.40;;;;;;;16.64;72.00;101159.69;5050164;28;20490;-53
2022/09/03 07:51:38;;;;;;;18.83;7.90;;;;;;;16.76;71.85;101173.19;5052373;28;20052;-53
2022/09/03 07:54:06;;;;;;;18.13;7.70;;;;;;;16.62;72.58;101170.72;5051448;28;21693;-53
2022/09/03 07:56:34;;;;;;;17.88;7.43;;;;;;;16.70;72.48;101169.53;5053315;28;20150;-54
2022/09/03 07:59:02;;;;;;;14.88;7.60;;;;;;;16.67;72.92;101159.22;5051797;28;20447;-53
2022/09/03 08:01:30;;;;;;;29.60;8.35;;;;;;;16.84;71.75;101173.66;5045940;28;20052;-53
2022/09/03 08:03:57;;;;;;;13.70;7.72;;;;;;;16.68;72.39;101173.53;5033291;28;20025;-53
2022/09/03 08:06:25;;;;;;;15.27;8.70;;;;;;;16.59;72.71;101173.91;5037098;28;20074;-53
2022/09/03 08:08:57;;;;;;;17.10;7.80;;;;;;;16.70;72.63;101169.53;5039689;28;20029;-54
2022/09/03 08:11:26;;;;;;;16.98;7.30;;;;;;;16.62;72.62;101165.31;5051912;28;20119;-52
2022/09/03 08:14:01;;;;;;;14.75;7.93;;;;;;;16.81;72.09;101159.78;5037306;28;20079;-54
2022/09/03 08:16:30;;;;;;;17.65;7.38;;;;;;;16.56;73.05;101174.38;5051932;28;20028;-53
2022/09/03 08:18:56;;;;;;;15.07;7.32;;;;;;;16.65;72.89;101172.13;5046315;28;20040;-54
2022/09/03 08:21:24;;;;;;;16.23;7.35;;;;;;;16.74;72.67;101170.72;5037650;28;20474;-53
2022/09/03 08:23:53;;;;;;;16.75;7.00;;;;;;;16.75;72.49;101168.84;5036126;28;20025;-54
2022/09/03 08:26:21;;;;;;;16.55;7.60;;;;;;;16.74;72.22;101170.72;5052659;28;20037;-53
2022/09/03 08:28:48;;;;;;;21.40;7.57;;;;;;;16.70;72.65;101174.94;5034629;28;20045;-54
2022/09/03 08:31:20;;;;;;;16.95;7.20;;;;;;;16.65;72.82;101172.13;5042988;28;20032;-53
2022/09/03 08:33:49;;;;;;;15.05;7.35;;;;;;;16.81;72.53;101165.19;5047330;28;20022;-54
2022/09/03 08:36:20;;;;;;;17.50;7.35;;;;;;;16.64;73.18;101149.69;5036469;28;20509;-53
2022/09/03 08:38:47;;;;;;;18.27;7.95;;;;;;;16.67;72.72;101147.59;5052571;28;20041;-52
2022/09/03 08:41:29;;;;;;;16.48;7.38;;;;;;;16.72;72.34;101153.13;5048360;28;20165;-54
2022/09/03 08:44:45;;;;;;;17.15;7.57;;;;;;;16.62;72.84;101151.81;5032946;28;20060;-53
2022/09/03 08:47:26;;;;;;;19.48;8.30;;;;;;;16.70;72.54;101156.00;4981513;28;20049;-53
2022/09/03 08:49:55;;;;;;;16.88;7.28;;;;;;;16.54;73.00;101159.44;5047268;28;20037;-53
2022/09/03 08:52:47;;;;;;;15.10;7.85;;;;;;;16.55;73.49;101156.53;5047286;28;20483;-53
2022/09/03 08:55:19;;;;;;;19.80;7.85;;;;;;;16.57;73.23;101159.00;5032658;28;20036;-54
2022/09/03 08:57:54;;;;;;;19.40;8.45;;;;;;;16.48;73.11;101165.81;5033592;28;20120;-53
2022/09/03 09:00:20;;;;;;;18.70;8.45;;;;;;;16.51;73.59;101166.16;5032420;28;20029;-54
2022/09/03 09:02:56;;;;;;;17.02;7.30;;;;;;;16.53;73.49;101164.03;5048294;28;20041;-53
2022/09/03 09:05:59;;;;;;;16.05;8.32;;;;;;;16.41;73.55;101165.13;5045148;28;20029;-53
2022/09/03 09:09:06;;;;;;;16.38;7.93;;;;;;;16.43;73.80;101171.91;5028457;28;20452;-54
2022/09/03 09:12:00;;;;;;;17.25;7.05;;;;;;;16.28;74.31;101160.78;5031571;28;20037;-53
2022/09/03 09:14:29;;;;;;;17.08;8.07;;;;;;;16.27;74.58;101156.47;5047922;28;20463;-53
2022/09/03 09:17:30;;;;;;;25.88;8.32;;;;;;;16.25;74.62;101161.25;5048836;28;20057;-54
2022/09/03 09:20:06;;;;;;;18.77;8.30;;;;;;;16.31;74.21;101171.13;5046809;28;20116;-54
2022/09/03 09:22:40;;;;;;;20.80;7.65;;;;;;;16.27;74.62;101162.69;5031516;28;20037;-53
2022/09/03 09:25:14;;;;;;;16.35;7.70;;;;;;;16.26;74.37;101162.88;5042825;28;20079;-53
2022/09/03 09:28:12;;;;;;;17.50;7.75;;;;;;;16.30;74.11;101164.06;5031979;28;20026;-54
2022/09/03 09:30:39;;;;;;;14.45;7.57;;;;;;;16.37;73.67;101175.56;5050741;28;20041;-53
2022/09/03 09:33:06;;;;;;;16.15;7.20;;;;;;;16.35;74.07;101177.69;5031453;28;20056;-53
2022/09/03 09:35:32;;;;;;;15.30;7.28;;;;;;;16.30;73.93;101177.56;5031744;28;20030;-54
2022/09/03 09:37:59;;;;;;;23.42;7.75;;;;;;;16.24;74.11;101171.25;5039744;28;20025;-54
2022/09/03 09:40:32;;;;;;;16.33;7.13;;;;;;;16.23;74.33;101180.41;5050367;28;20145;-53
2022/09/03 09:43:06;;;;;;;17.75;7.50;;;;;;;16.33;73.77;101179.81;5051472;28;20124;-53
2022/09/03 09:45:33;;;;;;;14.55;7.43;;;;;;;16.24;74.22;101179.34;5032153;28;20029;-53
2022/09/03 09:48:01;;;;;;;15.45;7.20;;;;;;;16.31;74.27;101187.31;5048582;28;20055;-53
2022/09/03 09:50:28;;;;;;;20.02;7.90;;;;;;;16.35;74.43;101185.78;5038997;28;20032;-54
2022/09/03 09:53:13;;;;;;;14.90;7.45;;;;;;;16.24;74.95;101179.34;5034226;28;20382;-53
2022/09/03 09:55:56;;;;;;;17.98;7.25;;;;;;;16.27;75.09;101175.38;5051644;28;20051;-53
2022/09/03 09:58:27;;;;;;;18.15;7.10;;;;;;;16.23;75.11;101172.31;5049866;28;20032;-54
2022/09/03 10:01:11;;;;;;;18.40;7.45;;;;;;;16.09;75.66;101169.00;5044685;28;20029;-53
2022/09/03 10:03:48;;;;;;;14.43;6.67;;;;;;;16.34;74.68;101176.88;5035780;28;20056;-54
2022/09/03 10:09:27;;;;;;;16.77;7.22;;;;;;;16.51;73.99;101166.16;5049624;28;20036;-54
2022/09/03 10:12:38;;;;;;;15.57;6.20;;;;;;;16.45;74.05;101169.00;5035353;28;20566;-54
2022/09/03 10:15:16;;;;;;;20.48;7.13;;;;;;;16.46;74.44;101184.16;5047004;28;20045;-53
2022/09/03 10:18:14;;;;;;;16.13;7.18;;;;;;;16.42;74.68;101174.88;5042960;28;20026;-53
2022/09/03 10:20:57;;;;;;;19.33;7.32;;;;;;;16.56;73.66;101174.38;5041963;28;20060;-54
2022/09/03 10:23:31;;;;;;;15.48;7.65;;;;;;;16.49;73.70;101170.16;5037193;28;20049;-54
2022/09/03 10:26:15;;;;;;;19.77;6.68;;;;;;;16.42;73.99;101182.97;5045767;28;20035;-54
2022/09/03 10:28:46;;;;;;;19.65;7.68;;;;;;;16.52;73.46;101184.03;5052922;28;20087;-54
2022/09/03 10:31:33;;;;;;;16.75;6.43;;;;;;;16.36;73.83;101182.03;5054474;28;20032;-54
2022/09/03 10:34:09;;;;;;;15.20;6.85;;;;;;;16.49;73.38;101173.69;5045327;28;20553;-54
2022/09/03 10:36:58;;;;;;;13.00;6.13;;;;;;;16.34;73.45;101181.47;5044212;28;20094;-54
2022/09/03 10:39:39;;;;;;;17.33;6.55;;;;;;;16.51;72.99;101181.56;5053054;28;20422;-53
2022/09/03 10:42:40;;;;;;;15.75;6.68;;;;;;;16.51;72.69;101176.16;5053745;28;20043;-53
2022/09/03 10:45:15;;;;;;;17.65;7.50;;;;;;;16.36;72.83;101179.34;5033889;28;20495;-54
2022/09/03 10:47:48;;;;;;;16.85;6.32;;;;;;;16.51;72.36;101187.78;5054590;28;20112;-53
2022/09/03 10:50:22;;;;;;;16.92;5.85;;;;;;;16.45;72.23;101180.63;5046584;28;20087;-54
2022/09/03 10:53:00;;;;;;;14.07;6.55;;;;;;;16.66;71.35;101183.75;5037168;28;20154;-53
2022/09/03 10:56:11;;;;;;;14.23;5.68;;;;;;;16.34;71.80;101182.28;5052672;28;20025;-55
2022/09/03 10:59:09;;;;;;;17.73;6.18;;;;;;;16.30;72.36;101175.69;4991480;28;20477;-55
2022/09/03 11:02:06;;;;;;;12.48;6.18;;;;;;;16.31;72.94;101173.81;4992893;28;20492;-54
2022/09/03 11:04:40;;;;;;;12.32;5.88;;;;;;;16.13;73.35;101174.75;5043430;28;20053;-54
2022/09/03 11:07:14;;;;;;;16.08;6.00;;;;;;;16.19;73.01;101186.50;5053113;28;20529;-54
2022/09/03 11:10:25;;;;;;;16.27;6.18;;;;;;;16.14;72.68;101189.09;5041299;28;20041;-53
2022/09/03 11:12:57;;;;;;;17.20;6.18;;;;;;;16.09;73.12;101178.97;5033779;28;20120;-54
2022/09/03 11:15:31;;;;;;;13.20;6.45;;;;;;;16.06;72.96;101180.28;5048899;28;20087;-53
2022/09/03 11:18:03;;;;;;;18.17;7.38;;;;;;;16.00;73.05;101180.41;5053260;28;20041;-53
2022/09/03 11:20:31;;;;;;;13.52;6.30;;;;;;;15.96;72.88;101169.25;5053914;28;20114;-53
2022/09/03 11:23:02;;;;;;;18.95;5.90;;;;;;;16.07;72.42;101176.53;5052556;28;20124;-53
2022/09/03 11:25:40;;;;;;;16.60;6.20;;;;;;;16.12;72.33;101173.13;5035033;28;20034;-53
2022/09/03 11:28:43;;;;;;;16.77;6.00;;;;;;;16.13;72.25;101173.94;5047488;28;20122;-54
2022/09/03 11:31:37;;;;;;;17.58;6.40;;;;;;;16.12;72.13;101177.72;5053543;28;20062;-53
2022/09/03 11:34:13;;;;;;;13.38;5.28;;;;;;;16.18;71.80;101177.59;5037734;28;20032;-54
2022/09/03 11:36:40;;;;;;;15.73;6.18;;;;;;;16.09;72.25;101179.81;5034421;28;20095;-54
2022/09/03 11:39:22;;;;;;;16.98;6.30;;;;;;;16.13;72.03;101179.34;5054186;28;20372;-54
2022/09/03 11:42:12;;;;;;;12.35;6.03;;;;;;;16.19;71.65;101176.53;5033791;28;20106;-53
2022/09/03 11:44:44;;;;;;;12.70;5.97;;;;;;;16.15;71.70;101172.63;5036001;28;20037;-54
2022/09/03 11:47:22;;;;;;;13.55;6.18;;;;;;;16.17;71.41;101173.25;5048721;28;20036;-54
2022/09/03 11:49:52;;;;;;;13.57;6.43;;;;;;;16.36;70.97;101184.75;5052516;28;20031;-53
2022/09/03 11:52:31;;;;;;;12.40;6.03;;;;;;;16.42;70.25;101178.38;5034063;28;20034;-54
2022/09/03 11:54:57;;;;;;;11.40;5.78;;;;;;;16.39;70.70;101178.88;5037118;28;20034;-54